createdAt,value
2019-04-10T00:02:29.216Z,69.50
2019-04-10T00:04:59.094Z,69.20
2019-04-10T00:07:28.936Z,69.50
2019-04-10T00:09:57.828Z,70.20
2019-04-10T00:12:26.498Z,70.20
2019-04-10T00:14:56.765Z,70.20
2019-04-10T00:17:25.480Z,70.40
2019-04-10T00:19:56.003Z,70.50
2019-04-10T00:22:24.872Z,70.90
2019-04-10T00:24:54.515Z,70.70
2019-04-10T00:27:23.359Z,70.80
2019-04-10T00:29:52.348Z,71.40
2019-04-10T00:32:21.619Z,71.20
2019-04-10T00:34:50.448Z,71.40
2019-04-10T00:37:23.974Z,71.80
2019-04-10T00:39:49.395Z,72.10
2019-04-10T00:42:18.787Z,72.20
2019-04-10T00:44:48.061Z,72.70
2019-04-10T00:47:17.080Z,72.70
2019-04-10T00:49:46.140Z,73.40
2019-04-10T00:52:14.921Z,72.80
2019-04-10T00:54:43.562Z,73.20
2019-04-10T00:57:12.831Z,73.40
2019-04-10T00:59:42.172Z,73.60
2019-04-10T01:02:12.122Z,73.60
2019-04-10T01:04:40.978Z,73.60
2019-04-10T01:07:10.690Z,74.00
2019-04-10T01:09:39.670Z,73.90
2019-04-10T01:12:08.564Z,74.20
2019-04-10T01:14:38.080Z,74.30
2019-04-10T01:17:06.860Z,74.40
2019-04-10T01:19:37.799Z,74.50
2019-04-10T01:22:07.075Z,74.70
2019-04-10T01:24:35.681Z,74.60
2019-04-10T01:27:04.540Z,74.90
2019-04-10T01:29:33.617Z,74.70
2019-04-10T01:32:03.571Z,75.00
2019-04-10T01:34:32.373Z,75.40
2019-04-10T01:37:01.010Z,75.40
2019-04-10T01:39:32.561Z,75.30
2019-04-10T01:42:01.385Z,75.50
2019-04-10T01:44:30.852Z,75.40
2019-04-10T01:46:59.613Z,75.10
2019-04-10T01:49:29.212Z,75.10
2019-04-10T01:51:59.397Z,75.00
2019-04-10T01:54:28.208Z,75.10
2019-04-10T01:56:57.924Z,75.10
2019-04-10T01:59:27.925Z,75.20
2019-04-10T02:02:03.868Z,75.30
2019-04-10T02:04:33.146Z,75.00
2019-04-10T02:07:03.510Z,75.10
2019-04-10T02:09:32.221Z,74.80
2019-04-10T02:12:01.989Z,74.90
2019-04-10T02:14:30.783Z,74.90
2019-04-10T02:16:59.379Z,75.10
2019-04-10T02:19:28.214Z,75.20
2019-04-10T02:21:56.843Z,74.90
2019-04-10T02:24:25.625Z,75.20
2019-04-10T02:26:54.379Z,75.00
2019-04-10T02:29:23.875Z,75.20
2019-04-10T02:31:53.337Z,75.60
2019-04-10T02:34:23.227Z,76.20
2019-04-10T02:36:55.287Z,76.00
2019-04-10T02:39:32.347Z,76.30
2019-04-10T02:41:54.544Z,77.50
2019-04-10T02:44:26.070Z,75.50
2019-04-10T02:46:55.489Z,75.60
2019-04-10T02:49:24.707Z,75.90
2019-04-10T02:51:55.010Z,76.80
2019-04-10T02:54:25.133Z,76.80
2019-04-10T02:56:54.892Z,77.10
2019-04-10T02:59:23.912Z,76.80
2019-04-10T03:01:52.776Z,77.20
2019-04-10T03:04:21.402Z,77.20
2019-04-10T03:06:51.466Z,77.20
2019-04-10T03:09:39.036Z,77.50
2019-04-10T03:11:51.968Z,77.70
2019-04-10T03:14:21.972Z,78.60
2019-04-10T03:16:51.479Z,77.90
2019-04-10T03:19:21.250Z,78.00
2019-04-10T03:21:49.952Z,78.00
2019-04-10T03:24:19.139Z,78.20
2019-04-10T03:26:49.913Z,78.40
2019-04-10T03:29:19.801Z,78.70
2019-04-10T03:31:50.477Z,78.80
2019-04-10T03:34:26.139Z,79.10
2019-04-10T03:36:54.520Z,79.00
2019-04-10T03:39:23.710Z,79.20
2019-04-10T03:41:52.658Z,79.40
2019-04-10T03:44:22.872Z,79.30
2019-04-10T03:46:52.816Z,79.30
2019-04-10T03:49:22.154Z,79.00
2019-04-10T03:51:54.555Z,79.20
2019-04-10T03:54:23.267Z,79.30
2019-04-10T03:56:52.034Z,78.90
2019-04-10T03:59:20.777Z,79.30
2019-04-10T04:01:49.437Z,79.50
2019-04-10T04:04:18.035Z,79.50
2019-04-10T04:06:46.637Z,79.70
2019-04-10T04:09:16.207Z,79.60
2019-04-10T04:11:46.113Z,79.70
2019-04-10T04:14:14.787Z,79.90
2019-04-10T04:16:43.633Z,80.20
2019-04-10T04:19:13.465Z,80.30
2019-04-10T04:21:43.926Z,80.60
2019-04-10T04:24:12.742Z,81.00
2019-04-10T04:26:42.330Z,81.00
2019-04-10T04:29:10.959Z,81.00
2019-04-10T04:31:39.975Z,81.10
2019-04-10T04:34:09.768Z,81.20
2019-04-10T04:36:38.756Z,81.20
2019-04-10T04:39:17.841Z,81.60
2019-04-10T04:41:38.017Z,81.60
2019-04-10T04:44:06.698Z,81.60
2019-04-10T04:46:35.322Z,82.20
2019-04-10T04:49:04.002Z,81.80
2019-04-10T04:51:33.066Z,81.80
2019-04-10T04:54:01.838Z,81.90
2019-04-10T04:56:31.621Z,82.00
2019-04-10T04:59:01.430Z,81.90
2019-04-10T05:01:30.207Z,82.20
2019-04-10T05:03:58.804Z,82.10
2019-04-10T05:06:27.504Z,82.30
2019-04-10T05:08:56.855Z,82.00
2019-04-10T05:11:26.534Z,81.80
2019-04-10T05:13:57.339Z,81.30
2019-04-10T05:16:26.069Z,80.90
2019-04-10T05:18:54.668Z,81.10
2019-04-10T05:21:23.296Z,80.50
2019-04-10T05:23:53.308Z,80.30
2019-04-10T05:26:22.833Z,80.10
2019-04-10T05:28:51.570Z,79.70
2019-04-10T05:31:21.399Z,79.70
2019-04-10T05:33:51.324Z,79.00
2019-04-10T05:36:20.121Z,78.90
2019-04-10T05:38:48.817Z,78.80
2019-04-10T05:41:17.634Z,78.50
2019-04-10T05:43:46.809Z,78.20
2019-04-10T05:46:16.459Z,77.60
2019-04-10T05:48:46.207Z,77.50
2019-04-10T05:51:15.109Z,77.30
2019-04-10T05:53:44.869Z,76.80
2019-04-10T05:56:14.654Z,76.30
2019-04-10T05:58:43.355Z,76.40
2019-04-10T06:01:12.123Z,76.00
2019-04-10T06:03:40.862Z,75.50
2019-04-10T06:06:10.326Z,75.00
2019-04-10T06:08:39.437Z,75.30
2019-04-10T06:11:08.715Z,75.20
2019-04-10T06:13:38.739Z,74.40
2019-04-10T06:16:07.724Z,74.40
2019-04-10T06:18:37.465Z,74.10
2019-04-10T06:21:07.092Z,73.40
2019-04-10T06:23:35.884Z,73.00
2019-04-10T06:26:06.756Z,72.30
2019-04-10T06:28:35.561Z,71.90
2019-04-10T06:31:04.264Z,72.20
2019-04-10T06:33:33.907Z,71.40
2019-04-10T06:36:02.909Z,70.90
2019-04-10T06:38:31.747Z,70.30
2019-04-10T06:41:00.460Z,69.20
2019-04-10T06:43:29.065Z,68.20
2019-04-10T06:45:58.706Z,67.60
2019-04-10T06:48:27.870Z,66.90
2019-04-10T06:51:18.431Z,65.80
2019-04-10T06:53:54.036Z,65.50
2019-04-10T06:56:16.682Z,65.10
2019-04-10T06:58:45.417Z,63.70
2019-04-10T07:01:14.755Z,64.90
2019-04-10T07:03:51.918Z,64.00
2019-04-10T07:06:17.629Z,64.00
2019-04-10T07:08:48.838Z,64.30
2019-04-10T07:11:18.095Z,62.80
2019-04-10T07:13:44.992Z,61.90
2019-04-10T07:16:15.856Z,62.20
2019-04-10T07:18:48.587Z,62.00
2019-04-10T07:21:15.113Z,62.70
2019-04-10T07:23:44.734Z,61.90
2019-04-10T07:26:18.527Z,59.90
2019-04-10T07:28:46.401Z,58.70
2019-04-10T07:31:14.401Z,58.20
2019-04-10T07:33:45.158Z,60.30
2019-04-10T07:36:14.133Z,59.60
2019-04-10T07:38:43.357Z,59.90
2019-04-10T07:41:19.290Z,59.80
2019-04-10T07:43:42.625Z,57.80
2019-04-10T07:46:13.159Z,57.90
2019-04-10T07:48:41.780Z,58.80
2019-04-10T07:51:11.247Z,58.60
2019-04-10T07:53:39.932Z,58.40
2019-04-10T07:56:14.933Z,55.60
2019-04-10T07:58:40.009Z,56.20
2019-04-10T08:01:09.870Z,55.00
2019-04-10T08:03:39.588Z,55.80
2019-04-10T08:06:09.009Z,54.10
2019-04-10T08:08:38.338Z,53.90
2019-04-10T08:11:07.202Z,53.00
2019-04-10T08:13:36.451Z,54.30
2019-04-10T08:16:06.285Z,53.10
2019-04-10T08:18:35.184Z,53.40
2019-04-10T08:21:04.964Z,52.70
2019-04-10T08:23:33.872Z,52.00
2019-04-10T08:26:03.525Z,51.80
2019-04-10T08:28:32.792Z,52.60
2019-04-10T08:31:02.479Z,52.60
2019-04-10T08:33:32.180Z,52.30
2019-04-10T08:36:01.187Z,51.90
2019-04-10T08:38:30.059Z,50.80
2019-04-10T08:40:58.938Z,50.30
2019-04-10T08:43:27.598Z,49.20
2019-04-10T08:45:56.828Z,49.80
2019-04-10T08:48:27.647Z,50.00
2019-04-10T08:50:56.720Z,48.20
2019-04-10T08:53:27.143Z,47.70
2019-04-10T08:55:56.794Z,49.10
2019-04-10T08:58:27.155Z,47.90
2019-04-10T09:00:56.599Z,47.90
2019-04-10T09:03:25.346Z,46.70
2019-04-10T09:05:55.267Z,46.20
2019-04-10T09:08:24.615Z,45.40
2019-04-10T09:10:54.527Z,44.30
2019-04-10T09:13:24.255Z,45.90
2019-04-10T09:15:54.039Z,45.20
2019-04-10T09:18:23.146Z,46.70
2019-04-10T09:20:53.022Z,46.60
2019-04-10T09:23:31.911Z,44.40
2019-04-10T09:25:52.266Z,44.60
2019-04-10T09:28:22.288Z,42.70
2019-04-10T09:30:51.399Z,44.40
2019-04-10T09:33:25.037Z,46.80
2019-04-10T09:35:50.945Z,44.40
2019-04-10T09:38:20.869Z,46.30
2019-04-10T09:40:50.713Z,48.20
2019-04-10T09:43:19.346Z,45.30
2019-04-10T09:45:48.175Z,45.80
2019-04-10T09:48:16.871Z,45.10
2019-04-10T09:50:45.935Z,43.10
2019-04-10T09:53:15.084Z,42.60
2019-04-10T09:55:44.761Z,43.10
2019-04-10T09:58:13.604Z,41.90
2019-04-10T10:00:43.738Z,44.30
2019-04-10T10:03:15.328Z,43.00
2019-04-10T10:05:44.637Z,43.40
2019-04-10T10:08:14.206Z,43.20
2019-04-10T10:10:42.988Z,44.20
2019-04-10T10:13:12.976Z,41.50
2019-04-10T10:15:41.880Z,39.30
2019-04-10T10:18:10.998Z,40.00
2019-04-10T10:20:43.887Z,40.10
2019-04-10T10:23:13.689Z,41.90
2019-04-10T10:25:43.665Z,40.20
2019-04-10T10:28:13.214Z,38.30
2019-04-10T10:30:42.009Z,37.50
2019-04-10T10:33:10.680Z,39.30
2019-04-10T10:35:39.384Z,39.10
2019-04-10T10:38:08.516Z,39.10
2019-04-10T10:40:37.463Z,39.90
2019-04-10T10:43:06.150Z,35.60
2019-04-10T10:45:34.856Z,35.70
2019-04-10T10:48:03.568Z,34.90
2019-04-10T10:50:33.093Z,38.80
2019-04-10T10:53:01.934Z,36.10
2019-04-10T10:55:31.756Z,34.50
2019-04-10T10:58:01.745Z,35.90
2019-04-10T11:00:31.342Z,35.60
2019-04-10T11:03:00.264Z,34.40
2019-04-10T11:05:31.548Z,35.30
2019-04-10T11:07:59.887Z,34.50
2019-04-10T11:10:30.060Z,33.40
2019-04-10T11:12:59.971Z,35.60
2019-04-10T11:15:28.989Z,33.30
2019-04-10T11:17:57.859Z,34.50
2019-04-10T11:20:27.949Z,32.60
2019-04-10T11:22:57.733Z,34.00
2019-04-10T11:25:26.605Z,34.50
2019-04-10T11:27:56.458Z,36.40
2019-04-10T11:30:26.841Z,33.20
2019-04-10T11:32:55.713Z,34.10
2019-04-10T11:35:24.520Z,33.90
2019-04-10T11:37:56.172Z,32.80
2019-04-10T11:40:26.266Z,34.20
2019-04-10T11:42:55.446Z,32.70
2019-04-10T11:45:28.281Z,33.60
2019-04-10T11:47:56.480Z,38.20
2019-04-10T11:50:25.698Z,34.80
2019-04-10T11:52:56.761Z,37.70
2019-04-10T11:55:26.138Z,35.50
2019-04-10T11:57:57.802Z,37.40
2019-04-10T12:00:50.350Z,36.40
2019-04-10T12:03:15.203Z,36.70
2019-04-10T12:05:46.209Z,38.00
2019-04-10T12:08:41.956Z,38.40
2019-04-10T12:13:17.017Z,37.50
2019-04-10T12:15:45.201Z,39.20
2019-04-10T12:18:14.156Z,39.00
2019-04-10T12:20:43.165Z,40.20
2019-04-10T12:23:12.604Z,38.50
2019-04-10T12:25:41.348Z,38.20
2019-04-10T12:28:10.064Z,38.60
2019-04-10T12:30:39.528Z,37.60
2019-04-10T12:33:09.451Z,35.60
2019-04-10T12:35:38.481Z,36.40
2019-04-10T12:38:10.376Z,37.10
2019-04-10T12:40:38.957Z,36.50
2019-04-10T12:43:08.443Z,36.60
2019-04-10T12:45:38.174Z,35.50
2019-04-10T12:48:06.980Z,36.80
2019-04-10T12:50:35.785Z,36.70
2019-04-10T12:53:05.319Z,38.20
2019-04-10T12:55:34.713Z,35.40
2019-04-10T12:58:09.596Z,36.20
2019-04-10T13:00:33.977Z,33.20
2019-04-10T13:03:02.993Z,35.10
2019-04-10T13:05:31.915Z,34.10
2019-04-10T13:08:12.051Z,35.20
2019-04-10T13:10:31.670Z,36.20
2019-04-10T13:13:01.814Z,36.20
2019-04-10T13:15:31.764Z,34.60
2019-04-10T13:18:00.588Z,35.50
2019-04-10T13:20:29.481Z,36.60
2019-04-10T13:22:58.344Z,34.90
2019-04-10T13:25:27.078Z,35.00
2019-04-10T13:27:55.912Z,34.00
2019-04-10T13:30:25.020Z,34.30
2019-04-10T13:32:53.808Z,33.60
2019-04-10T13:35:22.500Z,31.90
2019-04-10T13:37:51.094Z,33.20
2019-04-10T13:40:19.865Z,33.70
2019-04-10T13:42:49.462Z,33.50
2019-04-10T13:45:19.317Z,32.60
2019-04-10T13:47:48.551Z,30.00
2019-04-10T13:50:18.910Z,30.90
2019-04-10T13:52:53.677Z,33.30
2019-04-10T13:55:22.868Z,36.30
2019-04-10T13:57:53.010Z,34.80
2019-04-10T14:00:26.670Z,34.40
2019-04-10T14:02:56.169Z,34.10
2019-04-10T14:05:25.737Z,35.40
2019-04-10T14:07:54.456Z,35.50
2019-04-10T14:10:23.145Z,34.30
2019-04-10T14:12:51.925Z,33.50
2019-04-10T14:15:20.941Z,33.30
2019-04-10T14:17:50.083Z,33.50
2019-04-10T14:20:20.303Z,35.20
2019-04-10T14:23:02.063Z,35.10
2019-04-10T14:25:33.629Z,35.20
2019-04-10T14:28:02.816Z,35.80
2019-04-10T14:30:43.226Z,35.60
2019-04-10T14:33:12.938Z,34.10
2019-04-10T14:35:41.760Z,35.20
2019-04-10T14:38:11.182Z,35.60
2019-04-10T14:40:40.136Z,37.10
2019-04-10T14:43:08.910Z,36.00
2019-04-10T14:45:37.685Z,35.70
2019-04-10T14:48:06.453Z,34.30
2019-04-10T14:50:35.298Z,34.60
2019-04-10T14:53:05.557Z,34.80
2019-04-10T14:55:35.469Z,33.50
2019-04-10T14:58:05.539Z,34.60
2019-04-10T15:00:39.182Z,35.60
2019-04-10T15:03:08.498Z,36.60
2019-04-10T15:05:45.604Z,35.90
2019-04-10T15:08:07.682Z,34.40
2019-04-10T15:10:36.421Z,34.00
2019-04-10T15:13:09.919Z,34.10
2019-04-10T15:15:36.510Z,34.50
2019-04-10T15:18:06.565Z,34.80
2019-04-10T15:20:35.652Z,33.80
2019-04-10T15:23:05.019Z,33.70
2019-04-10T15:25:33.902Z,35.80
2019-04-10T15:28:02.610Z,34.70
2019-04-10T15:30:31.378Z,33.70
2019-04-10T15:33:00.425Z,34.10
2019-04-10T15:35:29.242Z,34.40
2019-04-10T15:37:57.871Z,35.00
2019-04-10T15:40:27.685Z,36.20
2019-04-10T15:42:56.989Z,35.80
2019-04-10T15:45:26.036Z,36.90
2019-04-10T15:47:57.555Z,35.50
2019-04-10T15:50:26.317Z,35.10
2019-04-10T15:52:55.811Z,36.30
2019-04-10T15:55:55.921Z,35.40
2019-04-10T15:58:25.664Z,36.00
2019-04-10T16:00:54.359Z,35.80
2019-04-10T16:03:22.970Z,37.20
2019-04-10T16:05:53.593Z,37.60
2019-04-10T16:08:23.745Z,38.30
2019-04-10T16:10:55.132Z,38.70
2019-04-10T16:13:25.642Z,39.10
2019-04-10T16:15:54.784Z,39.70
2019-04-10T16:18:25.174Z,38.30
2019-04-10T16:20:55.188Z,38.40
2019-04-10T16:23:40.474Z,39.60
2019-04-10T16:26:09.645Z,39.20
2019-04-10T16:28:38.341Z,39.30
2019-04-10T16:31:07.529Z,39.90
2019-04-10T16:33:36.396Z,40.70
2019-04-10T16:36:07.036Z,40.60
2019-04-10T16:38:36.431Z,40.50
2019-04-10T16:41:05.310Z,40.70
2019-04-10T16:43:33.913Z,40.70
2019-04-10T16:46:02.896Z,40.50
2019-04-10T16:48:31.638Z,39.90
2019-04-10T16:51:01.554Z,40.40
2019-04-10T16:53:30.232Z,41.30
2019-04-10T16:56:01.081Z,41.60
2019-04-10T16:58:29.770Z,41.10
2019-04-10T17:00:58.367Z,42.20
2019-04-10T17:03:27.546Z,41.40
2019-04-10T17:05:56.277Z,41.40
2019-04-10T17:08:24.959Z,42.10
2019-04-10T17:10:53.713Z,42.30
2019-04-10T17:13:22.520Z,43.00
2019-04-10T17:15:51.764Z,43.60
2019-04-10T17:18:21.277Z,43.70
2019-04-10T17:20:50.958Z,44.70
2019-04-10T17:23:20.576Z,44.20
2019-04-10T17:25:50.650Z,44.60
2019-04-10T17:28:22.051Z,45.70
2019-04-10T17:30:49.934Z,46.40
2019-04-10T17:33:18.794Z,46.40
2019-04-10T17:35:47.632Z,46.90
2019-04-10T17:38:18.357Z,47.70
2019-04-10T17:40:51.344Z,49.10
2019-04-10T17:43:18.912Z,50.20
2019-04-10T17:45:48.838Z,51.20
2019-04-10T17:48:17.822Z,51.70
2019-04-10T17:50:47.878Z,51.70
2019-04-10T17:53:18.365Z,52.10
2019-04-10T17:55:47.483Z,52.30
2019-04-10T17:58:17.102Z,52.80
2019-04-10T18:00:47.655Z,53.60
2019-04-10T18:03:18.412Z,54.20
2019-04-10T18:05:46.895Z,54.60
2019-04-10T18:08:16.660Z,54.80
2019-04-10T18:10:49.889Z,55.20
2019-04-10T18:13:15.870Z,56.00
2019-04-10T18:15:46.688Z,55.80
2019-04-10T18:18:15.750Z,56.10
2019-04-10T18:20:44.596Z,56.40
2019-04-10T18:23:13.487Z,56.70
2019-04-10T18:25:42.478Z,57.20
2019-04-10T18:28:11.666Z,57.10
2019-04-10T18:30:40.818Z,57.20
2019-04-10T18:33:10.206Z,57.70
2019-04-10T18:35:38.880Z,57.50
2019-04-10T18:38:07.564Z,57.70
2019-04-10T18:40:37.069Z,57.60
2019-04-10T18:43:06.225Z,58.10
2019-04-10T18:45:35.591Z,58.20
2019-04-10T18:48:04.510Z,58.60
2019-04-10T18:50:34.039Z,59.20
2019-04-10T18:53:03.732Z,59.20
2019-04-10T18:55:34.441Z,59.50
2019-04-10T18:58:05.399Z,59.50
2019-04-10T19:00:52.558Z,59.70
2019-04-10T19:03:23.531Z,59.60
2019-04-10T19:05:56.968Z,59.70
2019-04-10T19:08:26.064Z,60.00
2019-04-10T19:11:08.386Z,61.00
2019-04-10T19:13:25.284Z,60.10
2019-04-10T19:16:09.070Z,60.20
2019-04-10T19:18:37.841Z,59.90
2019-04-10T19:21:07.075Z,60.40
2019-04-10T19:23:37.035Z,60.50
2019-04-10T19:26:09.277Z,60.60
2019-04-10T19:28:40.672Z,60.70
2019-04-10T19:31:19.512Z,61.00
2019-04-10T19:33:46.996Z,61.00
2019-04-10T19:36:15.865Z,60.80
2019-04-10T19:38:45.332Z,61.20
2019-04-10T19:41:26.918Z,61.40
2019-04-10T19:43:46.176Z,61.60
2019-04-10T19:46:17.254Z,61.60
2019-04-10T19:48:48.894Z,61.90
2019-04-10T19:51:16.829Z,62.10
2019-04-10T19:53:45.783Z,62.10
2019-04-10T19:56:14.780Z,62.20
2019-04-10T19:58:44.091Z,62.60
2019-04-10T20:01:12.908Z,63.10
2019-04-10T20:03:41.762Z,62.90
2019-04-10T20:06:10.551Z,62.40
2019-04-10T20:08:39.838Z,62.50
2019-04-10T20:11:08.804Z,62.70
2019-04-10T20:13:38.764Z,62.80
2019-04-10T20:16:09.137Z,62.80
2019-04-10T20:18:38.985Z,62.90
2019-04-10T20:21:08.020Z,62.80
2019-04-10T20:23:36.712Z,63.10
2019-04-10T20:26:05.500Z,63.40
2019-04-10T20:28:34.445Z,63.30
2019-04-10T20:31:04.810Z,63.60
2019-04-10T20:33:35.736Z,63.10
2019-04-10T20:36:04.970Z,63.30
2019-04-10T20:38:34.781Z,63.40
2019-04-10T20:41:04.654Z,63.80
2019-04-10T20:43:33.777Z,63.80
2019-04-10T20:46:03.835Z,64.00
2019-04-10T20:48:32.933Z,64.30
2019-04-10T20:51:01.714Z,64.10
2019-04-10T20:53:31.651Z,64.30
2019-04-10T20:56:01.891Z,64.30
2019-04-10T20:58:30.638Z,64.40
2019-04-10T21:00:59.486Z,65.10
2019-04-10T21:03:28.451Z,64.80
2019-04-10T21:05:58.287Z,64.70
2019-04-10T21:08:27.729Z,65.20
2019-04-10T21:10:56.962Z,65.60
2019-04-10T21:13:25.849Z,65.60
2019-04-10T21:15:54.944Z,65.60
2019-04-10T21:18:23.782Z,65.80
2019-04-10T21:21:07.910Z,65.90
2019-04-10T21:23:38.032Z,66.10
2019-04-10T21:26:08.057Z,66.00
2019-04-10T21:28:40.235Z,66.00
2019-04-10T21:31:11.695Z,66.10
2019-04-10T21:33:42.917Z,66.30
2019-04-10T21:36:11.648Z,66.40
2019-04-10T21:38:40.736Z,66.90
2019-04-10T21:41:10.891Z,67.10
2019-04-10T21:43:40.979Z,67.40
2019-04-10T21:46:10.236Z,67.70
2019-04-10T21:48:39.137Z,67.90
2019-04-10T21:51:09.090Z,67.90
2019-04-10T21:53:38.872Z,68.20
2019-04-10T21:56:08.452Z,68.30
2019-04-10T21:58:37.144Z,68.50
2019-04-10T22:01:07.636Z,68.80
2019-04-10T22:03:37.849Z,69.20
2019-04-10T22:06:24.168Z,69.70
2019-04-10T22:09:01.831Z,69.70
2019-04-10T22:11:30.841Z,69.60
2019-04-10T22:14:00.432Z,69.80
2019-04-10T22:16:30.218Z,70.00
2019-04-10T22:18:59.126Z,70.10
2019-04-10T22:21:27.832Z,70.40
2019-04-10T22:23:56.672Z,70.50
2019-04-10T22:26:25.597Z,71.00
2019-04-10T22:28:54.830Z,71.40
2019-04-10T22:31:23.808Z,71.60
2019-04-10T22:33:52.720Z,71.70
2019-04-10T22:36:22.750Z,72.00
2019-04-10T22:38:51.828Z,72.10
2019-04-10T22:41:28.588Z,72.60
2019-04-10T22:43:51.023Z,72.90
2019-04-10T22:46:19.809Z,73.20
2019-04-10T22:48:48.406Z,73.30
2019-04-10T22:51:17.193Z,73.50
2019-04-10T22:53:47.934Z,73.60
2019-04-10T22:56:17.256Z,73.80
2019-04-10T22:58:46.014Z,73.90
2019-04-10T23:01:15.151Z,73.70
2019-04-10T23:03:45.223Z,74.10
2019-04-10T23:06:15.298Z,74.20
2019-04-10T23:08:45.245Z,74.30
2019-04-10T23:11:15.180Z,74.40
2019-04-10T23:13:43.984Z,74.90
2019-04-10T23:16:15.342Z,74.80
2019-04-10T23:18:43.528Z,74.90
2019-04-10T23:21:12.379Z,75.10
2019-04-10T23:23:41.177Z,75.40
2019-04-10T23:26:11.072Z,75.40
2019-04-10T23:28:39.988Z,75.50
2019-04-10T23:31:08.697Z,75.50
2019-04-10T23:33:38.329Z,75.80
2019-04-10T23:36:07.689Z,75.90
2019-04-10T23:38:36.489Z,76.60
2019-04-10T23:41:05.388Z,76.30
2019-04-10T23:43:34.124Z,76.60
2019-04-10T23:46:02.777Z,76.60
2019-04-10T23:48:31.394Z,76.90
2019-04-10T23:51:00.869Z,76.90
2019-04-10T23:53:30.620Z,77.30
2019-04-10T23:56:00.520Z,77.40
2019-04-10T23:58:29.763Z,77.60
